DAOI

Details ICAO DAOI (QAS)
Name ECH CHELIFF
Region Algeria
Timezone Africa/Algiers (UTC+1.0)
Plans Departing 1
Arriving 7
Stats Elevation 463 ft / 141 m (AMSL)
Location 36.212659° 1.331767°
Runways 1
Magnetic Variation 0.673° E
Sunrise 2018-05-24 04:43:54 UTC / 2018-05-24 05:43:54 Local
Sunset 2018-05-24 19:01:59 UTC / 2018-05-24 20:01:59 Local
Advertisement - Login to hide

Runways

ID Width Length Bearing (true) Bearing (mag) Surface Threshold Offset Overrun Length
07 98 ft / 30 m 5,397 ft / 1,645 m 66.29° 65.62° Asphalt 0 ft / 0 m 0 ft / 0 m
25 98 ft / 30 m 5,397 ft / 1,645 m 246.30° 245.63° Asphalt 0 ft / 0 m 0 ft / 0 m

Map

Weather


0- 5 10 15 20 25 30 35+ Temperature / ° C

Clouds and Precipitation
Forecast for 2018-05-24 12:00 UTC. Updated 5 hours ago

Ground ~20,000 ft ~40,000 ft Winds

METAR

DAOI 241600Z 16015KT 7000 SCT026 37/16 Q1008

TAF

TAF DAOI 241100Z 2412/2512 08015KT CAVOK PROB40 TEMPO 2413/2418 07018G30KT BECMG 2500/2503 VRB02KT 9999 FEW015 SCT023

Frequencies

Tower 119.00 MHz TWR
Warning: Do not use this data for real-world aviation or navigation. No guarantee of current accuracy is given.